createdAt,value
2016-08-08T00:00:11.884Z,23.7
2016-08-08T00:00:27.516Z,23.7
2016-08-08T00:00:38.666Z,23.8
2016-08-08T00:00:53.536Z,23.7
2016-08-08T00:01:06.135Z,23.6
2016-08-08T00:01:19.538Z,23.5
2016-08-08T00:01:34.005Z,23.5
2016-08-08T00:01:46.611Z,23.7
2016-08-08T00:01:59.964Z,23.6
2016-08-08T00:02:14.115Z,23.5
2016-08-08T00:02:26.031Z,23.6
2016-08-08T00:02:40.150Z,23.7
2016-08-08T00:02:52.017Z,23.7
2016-08-08T00:03:04.675Z,23.6
2016-08-08T00:03:19.551Z,23.5
2016-08-08T00:03:33.673Z,23.5
2016-08-08T00:03:46.300Z,23.5
2016-08-08T00:03:59.682Z,23.3
2016-08-08T00:04:15.304Z,23.4
2016-08-08T00:04:28.683Z,23.4
2016-08-08T00:04:42.092Z,23.4
2016-08-08T00:04:57.716Z,23.4
2016-08-08T00:05:10.338Z,23.5
2016-08-08T00:05:22.211Z,23.5
2016-08-08T00:05:37.075Z,23.6
2016-08-08T00:05:48.935Z,23.5
2016-08-08T00:06:02.300Z,23.6
2016-08-08T00:06:14.158Z,23.6
2016-08-08T00:06:27.544Z,23.6
2016-08-08T00:06:43.161Z,23.6
2016-08-08T00:06:56.520Z,23.6
2016-08-08T00:07:08.386Z,23.6
2016-08-08T00:07:22.522Z,23.5
2016-08-08T00:07:34.393Z,23.6
2016-08-08T00:07:47.779Z,23.7
2016-08-08T00:08:01.898Z,23.7
2016-08-08T00:08:15.285Z,23.7
2016-08-08T00:08:27.911Z,23.7
2016-08-08T00:08:42.033Z,23.7
2016-08-08T00:08:55.398Z,23.6
2016-08-08T00:09:08.761Z,23.6
2016-08-08T00:09:23.626Z,23.6
2016-08-08T00:09:35.509Z,23.5
2016-08-08T00:09:48.896Z,23.6
2016-08-08T00:10:03.753Z,23.6
2016-08-08T00:10:16.399Z,23.7
2016-08-08T00:10:29.049Z,23.6
2016-08-08T00:10:41.676Z,23.6
2016-08-08T00:10:55.039Z,23.5
2016-08-08T00:11:06.929Z,23.5
2016-08-08T00:11:21.813Z,23.5
2016-08-08T00:11:44.075Z,23.4
2016-08-08T00:11:55.186Z,23.4
2016-08-08T00:12:05.571Z,23.5
2016-08-08T00:12:21.189Z,23.5
2016-08-08T00:12:34.564Z,23.6
2016-08-08T00:12:48.697Z,23.5
2016-08-08T00:13:01.321Z,23.6
2016-08-08T00:13:13.204Z,23.6
2016-08-08T00:13:23.573Z,23.6
2016-08-08T00:13:36.213Z,23.7
2016-08-08T00:13:48.112Z,23.4
2016-08-08T00:13:59.228Z,23.3
2016-08-08T00:14:13.375Z,23.3
2016-08-08T00:14:26.017Z,23.4
2016-08-08T00:14:40.141Z,23.4
2016-08-08T00:14:54.296Z,23.5
2016-08-08T00:15:08.411Z,23.4
2016-08-08T00:15:21.021Z,23.5
2016-08-08T00:15:35.142Z,23.4
2016-08-08T00:15:47.027Z,23.4
2016-08-08T00:16:00.408Z,23.3
2016-08-08T00:16:11.612Z,23.3
2016-08-08T00:16:24.966Z,23.4
2016-08-08T00:16:38.329Z,23.4
2016-08-08T00:16:53.207Z,23.4
2016-08-08T00:17:06.577Z,23.6
2016-08-08T00:17:20.695Z,23.6
2016-08-08T00:17:34.059Z,23.7
2016-08-08T00:17:48.202Z,23.6
2016-08-08T00:18:01.563Z,23.7
2016-08-08T00:18:14.922Z,23.7
2016-08-08T00:18:28.283Z,23.6
2016-08-08T00:18:40.898Z,23.7
2016-08-08T00:18:54.300Z,23.7
2016-08-08T00:19:05.424Z,23.6
2016-08-08T00:19:18.797Z,23.7
2016-08-08T00:19:33.665Z,23.7
2016-08-08T00:19:55.843Z,23.6
2016-08-08T00:20:09.967Z,23.7
2016-08-08T00:20:22.607Z,23.6
2016-08-08T00:20:35.218Z,23.6
2016-08-08T00:20:47.084Z,23.6
2016-08-08T00:20:58.947Z,23.7
2016-08-08T00:21:13.091Z,23.5
2016-08-08T00:21:26.455Z,23.4
2016-08-08T00:21:36.808Z,23.4
2016-08-08T00:21:50.963Z,23.4
2016-08-08T00:22:05.846Z,23.4
2016-08-08T00:22:19.945Z,23.5
2016-08-08T00:22:33.332Z,23.5
2016-08-08T00:22:45.958Z,23.4
2016-08-08T00:22:59.323Z,23.5
2016-08-08T00:23:11.964Z,23.5
2016-08-08T00:23:24.598Z,23.5
2016-08-08T00:23:37.977Z,23.4
2016-08-08T00:23:52.111Z,23.4
2016-08-08T00:24:06.236Z,23.5
2016-08-08T00:24:18.089Z,23.4
2016-08-08T00:24:32.208Z,23.3
2016-08-08T00:24:44.840Z,23.2
2016-08-08T00:24:57.461Z,23.4
2016-08-08T00:25:10.086Z,23.4
2016-08-08T00:25:24.961Z,23.4
2016-08-08T00:25:38.335Z,23.5
2016-08-08T00:25:51.690Z,23.4
2016-08-08T00:26:04.314Z,23.5
2016-08-08T00:26:16.189Z,23.4
2016-08-08T00:26:26.545Z,23.4
2016-08-08T00:26:47.329Z,23.4
2016-08-08T00:26:59.197Z,23.5
2016-08-08T00:27:10.341Z,23.6
2016-08-08T00:27:24.468Z,23.5
2016-08-08T00:27:38.575Z,23.7
2016-08-08T00:27:51.185Z,23.5
2016-08-08T00:28:03.813Z,23.4
2016-08-08T00:28:17.189Z,23.4
2016-08-08T00:28:31.301Z,23.3
2016-08-08T00:28:43.212Z,23.2
2016-08-08T00:28:55.810Z,23.4
2016-08-08T00:29:08.421Z,23.4
2016-08-08T00:29:20.311Z,23.4
2016-08-08T00:29:35.179Z,23.3
2016-08-08T00:29:47.795Z,23.4
2016-08-08T00:30:01.183Z,23.4
2016-08-08T00:30:13.817Z,23.3
2016-08-08T00:30:29.436Z,23.3
2016-08-08T00:30:44.323Z,23.3
2016-08-08T00:30:59.943Z,23.2
2016-08-08T00:31:11.815Z,23.2
2016-08-08T00:31:25.926Z,23.3
2016-08-08T00:31:40.828Z,23.1
2016-08-08T00:31:54.944Z,23.2
2016-08-08T00:32:09.807Z,23.2
2016-08-08T00:32:23.923Z,23.3
2016-08-08T00:32:38.035Z,23.2
2016-08-08T00:32:52.144Z,23
2016-08-08T00:33:04.754Z,23
2016-08-08T00:33:15.862Z,23
2016-08-08T00:33:29.978Z,23
2016-08-08T00:33:44.092Z,23
2016-08-08T00:33:58.265Z,23
2016-08-08T00:34:12.384Z,23
2016-08-08T00:34:25.748Z,23
2016-08-08T00:34:40.640Z,22.9
2016-08-08T00:34:51.738Z,23
2016-08-08T00:35:04.364Z,23
2016-08-08T00:35:14.769Z,22.9
2016-08-08T00:35:27.388Z,23.1
2016-08-08T00:35:40.046Z,23.1
2016-08-08T00:35:52.669Z,23
2016-08-08T00:36:06.071Z,23
2016-08-08T00:36:20.203Z,23
2016-08-08T00:36:31.339Z,23.1
2016-08-08T00:36:43.962Z,22.9
2016-08-08T00:36:58.110Z,23
2016-08-08T00:37:11.498Z,22.9
2016-08-08T00:37:24.871Z,22.9
2016-08-08T00:37:40.495Z,22.9
2016-08-08T00:37:52.357Z,22.9
2016-08-08T00:38:04.215Z,23
2016-08-08T00:38:16.103Z,22.9
2016-08-08T00:38:26.083Z,22.9
2016-08-08T00:38:39.443Z,22.9
2016-08-08T00:38:52.809Z,23
2016-08-08T00:39:07.706Z,22.8
2016-08-08T00:39:20.320Z,22.8
2016-08-08T00:39:35.185Z,22.8
2016-08-08T00:39:50.803Z,22.8
2016-08-08T00:40:05.682Z,22.7
2016-08-08T00:40:18.295Z,22.8
2016-08-08T00:40:30.912Z,22.8
2016-08-08T00:40:43.533Z,22.8
2016-08-08T00:40:54.646Z,22.8
2016-08-08T00:41:07.297Z,22.7
2016-08-08T00:41:21.421Z,22.8
2016-08-08T00:41:45.054Z,22.9
2016-08-08T00:41:56.930Z,22.8
2016-08-08T00:42:08.808Z,22.8
2016-08-08T00:42:20.712Z,22.8
2016-08-08T00:42:33.322Z,22.8
2016-08-08T00:42:46.679Z,22.8
2016-08-08T00:43:00.048Z,22.7
2016-08-08T00:43:13.405Z,22.8
2016-08-08T00:43:28.276Z,22.8
2016-08-08T00:43:41.641Z,22.8
2016-08-08T00:43:54.263Z,22.8
2016-08-08T00:44:07.632Z,22.8
2016-08-08T00:44:20.241Z,22.8
2016-08-08T00:44:32.873Z,22.6
2016-08-08T00:44:46.244Z,22.7
2016-08-08T00:44:58.897Z,22.7
2016-08-08T00:45:12.269Z,22.7
2016-08-08T00:45:26.384Z,22.7
2016-08-08T00:45:39.749Z,22.7
2016-08-08T00:45:53.115Z,22.6
2016-08-08T00:46:06.480Z,22.7
2016-08-08T00:46:19.841Z,22.7
2016-08-08T00:46:32.454Z,22.7
2016-08-08T00:46:45.849Z,22.7
2016-08-08T00:46:57.703Z,22.8
2016-08-08T00:47:12.576Z,22.8
2016-08-08T00:47:25.957Z,22.8
2016-08-08T00:47:38.584Z,22.7
2016-08-08T00:47:51.195Z,22.8
2016-08-08T00:48:03.838Z,22.8
2016-08-08T00:48:14.948Z,22.8
2016-08-08T00:48:27.566Z,22.7
2016-08-08T00:48:42.429Z,22.8
2016-08-08T00:48:56.544Z,22.8
2016-08-08T00:49:08.392Z,22.6
2016-08-08T00:49:20.282Z,22.6
2016-08-08T00:49:33.673Z,22.7
2016-08-08T00:49:47.039Z,22.8
2016-08-08T00:50:00.397Z,22.8
2016-08-08T00:50:11.517Z,22.7
2016-08-08T00:50:23.389Z,22.7
2016-08-08T00:50:35.257Z,22.6
2016-08-08T00:50:47.899Z,22.7
2016-08-08T00:51:01.281Z,22.7
2016-08-08T00:51:15.398Z,22.8
2016-08-08T00:51:28.003Z,22.7
2016-08-08T00:51:42.131Z,22.7
2016-08-08T00:51:57.001Z,22.6
2016-08-08T00:52:11.869Z,22.7
2016-08-08T00:52:25.252Z,22.7
2016-08-08T00:52:39.367Z,22.6
2016-08-08T00:52:52.751Z,22.6
2016-08-08T00:53:03.114Z,22.5
2016-08-08T00:53:16.500Z,22.6
2016-08-08T00:53:31.375Z,22.6
2016-08-08T00:53:46.243Z,22.6
2016-08-08T00:54:00.390Z,22.6
2016-08-08T00:54:13.744Z,22.7
2016-08-08T00:54:29.372Z,22.8
2016-08-08T00:54:41.993Z,22.7
2016-08-08T00:54:55.359Z,22.8
2016-08-08T00:55:05.719Z,22.8
2016-08-08T00:55:19.088Z,22.8
2016-08-08T00:55:33.207Z,22.8
2016-08-08T00:55:46.563Z,22.8
2016-08-08T00:55:58.429Z,22.7
2016-08-08T00:56:11.049Z,22.8
2016-08-08T00:56:23.651Z,22.8
2016-08-08T00:56:48.084Z,22.7
2016-08-08T00:57:02.191Z,22.7
2016-08-08T00:57:15.575Z,22.7
2016-08-08T00:57:27.439Z,22.7
2016-08-08T00:57:39.315Z,22.7
2016-08-08T00:57:53.437Z,22.7
2016-08-08T00:58:06.055Z,22.8
2016-08-08T00:58:19.434Z,22.7
2016-08-08T00:58:31.306Z,22.8
2016-08-08T00:58:43.193Z,22.7
2016-08-08T00:58:56.553Z,22.8
2016-08-08T00:59:11.438Z,22.7
2016-08-08T00:59:24.827Z,22.7
2016-08-08T00:59:37.445Z,22.8
2016-08-08T00:59:51.561Z,22.7
2016-08-08T01:00:04.189Z,22.8
2016-08-08T01:00:17.559Z,22.8
2016-08-08T01:00:32.423Z,22.8
2016-08-08T01:00:47.311Z,22.8
2016-08-08T01:00:59.207Z,22.8
2016-08-08T01:01:11.831Z,22.8
2016-08-08T01:01:25.944Z,22.9
2016-08-08T01:01:38.561Z,22.8
2016-08-08T01:01:52.689Z,22.9
2016-08-08T01:02:08.313Z,22.8
2016-08-08T01:02:21.693Z,22.8
2016-08-08T01:02:35.056Z,22.8
2016-08-08T01:02:46.201Z,22.7
2016-08-08T01:02:59.603Z,22.7
2016-08-08T01:03:13.721Z,22.7
2016-08-08T01:03:27.839Z,22.7
2016-08-08T01:03:38.970Z,22.6
2016-08-08T01:03:51.591Z,22.5
2016-08-08T01:04:03.450Z,22.5
2016-08-08T01:04:17.571Z,22.5
2016-08-08T01:04:30.968Z,22.6
2016-08-08T01:04:43.587Z,22.7
2016-08-08T01:04:56.941Z,22.7
2016-08-08T01:05:10.301Z,22.7
2016-08-08T01:05:25.924Z,22.8
2016-08-08T01:05:37.776Z,22.7
2016-08-08T01:05:52.646Z,22.8
2016-08-08T01:06:06.776Z,22.7
2016-08-08T01:06:20.888Z,22.6
2016-08-08T01:06:34.278Z,22.7
2016-08-08T01:06:48.401Z,22.8
2016-08-08T01:07:02.598Z,22.8
2016-08-08T01:07:16.708Z,22.7
2016-08-08T01:07:30.092Z,22.7
2016-08-08T01:07:42.729Z,22.7
2016-08-08T01:07:54.619Z,22.7
2016-08-08T01:08:08.730Z,22.6
2016-08-08T01:08:24.360Z,22.6
2016-08-08T01:08:37.738Z,22.6
2016-08-08T01:08:52.606Z,22.5
2016-08-08T01:09:02.986Z,22.5
2016-08-08T01:09:16.373Z,22.5
2016-08-08T01:09:29.007Z,22.6
2016-08-08T01:09:41.629Z,22.6
2016-08-08T01:09:55.763Z,22.5
2016-08-08T01:10:09.881Z,22.4
2016-08-08T01:10:21.750Z,22.5
2016-08-08T01:10:33.632Z,22.5
2016-08-08T01:10:46.997Z,22.7
2016-08-08T01:11:01.869Z,22.7
2016-08-08T01:11:14.493Z,22.7
2016-08-08T01:11:29.372Z,22.8
2016-08-08T01:11:51.784Z,22.8
2016-08-08T01:12:05.898Z,22.8
2016-08-08T01:12:17.756Z,22.8
2016-08-08T01:12:31.123Z,22.7
2016-08-08T01:12:42.250Z,22.8
2016-08-08T01:12:54.142Z,22.8
2016-08-08T01:13:07.516Z,22.8
2016-08-08T01:13:22.377Z,22.7
2016-08-08T01:13:35.761Z,22.6
2016-08-08T01:13:47.685Z,22.5
2016-08-08T01:14:03.305Z,22.4
2016-08-08T01:14:18.167Z,22.4
2016-08-08T01:14:30.793Z,22.4
2016-08-08T01:14:44.153Z,22.5
2016-08-08T01:14:56.770Z,22.6
2016-08-08T01:15:09.412Z,22.6
2016-08-08T01:15:24.287Z,22.7
2016-08-08T01:15:39.166Z,22.7
2016-08-08T01:15:51.777Z,22.7
2016-08-08T01:16:02.892Z,22.7
2016-08-08T01:16:14.746Z,22.6
2016-08-08T01:16:27.358Z,22.4
2016-08-08T01:16:38.485Z,22.5
2016-08-08T01:16:50.381Z,22.5
2016-08-08T01:17:04.508Z,22.5
2016-08-08T01:17:16.377Z,22.5
2016-08-08T01:17:29.003Z,22.5
2016-08-08T01:17:41.638Z,22.6
2016-08-08T01:17:54.256Z,22.5
2016-08-08T01:18:07.622Z,22.5
2016-08-08T01:18:22.490Z,22.5
2016-08-08T01:18:35.097Z,22.5
2016-08-08T01:18:47.723Z,22.5
2016-08-08T01:18:58.108Z,22.4
2016-08-08T01:19:12.229Z,22.5
2016-08-08T01:19:26.362Z,22.5
2016-08-08T01:19:39.732Z,22.6
2016-08-08T01:19:54.601Z,22.5
2016-08-08T01:20:07.988Z,22.4
2016-08-08T01:20:21.357Z,22.5
2016-08-08T01:20:35.478Z,22.6
2016-08-08T01:20:50.349Z,22.5
2016-08-08T01:21:02.251Z,22.6
2016-08-08T01:21:15.611Z,22.6
2016-08-08T01:21:28.994Z,22.5
2016-08-08T01:21:42.390Z,22.5
2016-08-08T01:21:55.008Z,22.5
2016-08-08T01:22:06.864Z,22.5
2016-08-08T01:22:17.994Z,22.5
2016-08-08T01:22:31.404Z,22.5
2016-08-08T01:22:44.021Z,22.5
2016-08-08T01:22:58.890Z,22.7
2016-08-08T01:23:13.021Z,22.7
2016-08-08T01:23:27.129Z,22.7
2016-08-08T01:23:38.985Z,22.7
2016-08-08T01:23:51.601Z,22.6
2016-08-08T01:24:04.214Z,22.7
2016-08-08T01:24:18.325Z,22.7
2016-08-08T01:24:31.684Z,22.7
2016-08-08T01:24:44.322Z,22.8
2016-08-08T01:24:56.933Z,22.7
2016-08-08T01:25:11.798Z,22.7
2016-08-08T01:25:25.916Z,22.8
2016-08-08T01:25:39.322Z,22.7
2016-08-08T01:25:54.189Z,22.6
2016-08-08T01:26:06.080Z,22.7
2016-08-08T01:26:21.698Z,22.7
2016-08-08T01:26:35.802Z,22.7
2016-08-08T01:26:58.215Z,22.5
2016-08-08T01:27:12.334Z,22.5
2016-08-08T01:27:24.957Z,22.4
2016-08-08T01:27:39.835Z,22.5
2016-08-08T01:27:51.700Z,22.3
2016-08-08T01:28:05.074Z,22.5
2016-08-08T01:28:16.928Z,22.5
2016-08-08T01:28:31.059Z,22.6
2016-08-08T01:28:45.179Z,22.5
2016-08-08T01:28:57.788Z,22.6
2016-08-08T01:29:12.672Z,22.5
2016-08-08T01:29:26.058Z,22.7
2016-08-08T01:29:41.674Z,22.7
2016-08-08T01:29:54.302Z,22.7
2016-08-08T01:30:06.183Z,22.7
2016-08-08T01:30:21.816Z,22.7
2016-08-08T01:30:33.705Z,22.7
2016-08-08T01:30:47.071Z,22.7
2016-08-08T01:31:00.438Z,22.7
2016-08-08T01:31:13.811Z,22.7
2016-08-08T01:31:27.169Z,22.7
2016-08-08T01:31:38.301Z,22.7
2016-08-08T01:31:52.423Z,22.7
2016-08-08T01:32:05.783Z,22.7
2016-08-08T01:32:18.413Z,22.6
2016-08-08T01:32:31.040Z,22.7
2016-08-08T01:32:44.403Z,22.7
2016-08-08T01:32:58.509Z,22.8
2016-08-08T01:33:13.394Z,22.8
2016-08-08T01:33:26.763Z,22.8
2016-08-08T01:33:39.396Z,22.8
2016-08-08T01:33:55.025Z,22.8
2016-08-08T01:34:09.135Z,22.6
2016-08-08T01:34:22.515Z,22.7
2016-08-08T01:34:38.145Z,22.6
2016-08-08T01:34:53.010Z,22.7
2016-08-08T01:35:06.395Z,22.6
2016-08-08T01:35:20.504Z,22.8
2016-08-08T01:35:33.873Z,22.8
2016-08-08T01:35:46.486Z,22.7
2016-08-08T01:36:01.348Z,22.7
2016-08-08T01:36:13.216Z,22.8
2016-08-08T01:36:25.820Z,22.7
2016-08-08T01:36:39.183Z,22.8
2016-08-08T01:36:51.812Z,22.7
2016-08-08T01:37:06.698Z,22.8
2016-08-08T01:37:20.817Z,22.8
2016-08-08T01:37:35.695Z,22.7
2016-08-08T01:37:46.830Z,22.8
2016-08-08T01:38:01.690Z,22.8
2016-08-08T01:38:13.575Z,22.8
2016-08-08T01:38:26.940Z,22.6
2016-08-08T01:38:38.788Z,22.5
2016-08-08T01:38:50.660Z,22.6
2016-08-08T01:39:03.281Z,22.6
2016-08-08T01:39:16.649Z,22.6
2016-08-08T01:39:30.011Z,22.6
2016-08-08T01:39:43.393Z,22.5
2016-08-08T01:39:55.267Z,22.7
2016-08-08T01:40:07.884Z,22.7
2016-08-08T01:40:20.507Z,22.7
2016-08-08T01:40:32.395Z,22.6
2016-08-08T01:40:47.293Z,22.7
2016-08-08T01:40:58.435Z,22.7
2016-08-08T01:41:11.086Z,22.8
2016-08-08T01:41:23.700Z,22.7
2016-08-08T01:41:36.331Z,22.8
2016-08-08T01:41:59.854Z,22.7
2016-08-08T01:42:13.258Z,22.8
2016-08-08T01:42:25.873Z,22.6
2016-08-08T01:42:39.253Z,22.7
2016-08-08T01:42:52.619Z,22.6
2016-08-08T01:43:06.751Z,22.4
2016-08-08T01:43:19.379Z,22.5
2016-08-08T01:43:31.996Z,22.5
2016-08-08T01:43:46.892Z,22.5
2016-08-08T01:43:58.737Z,22.5
2016-08-08T01:44:10.629Z,22.5
2016-08-08T01:44:23.980Z,22.5
2016-08-08T01:44:34.337Z,22.4
2016-08-08T01:44:49.948Z,22.6
2016-08-08T01:45:03.316Z,22.5
2016-08-08T01:45:16.705Z,22.4
2016-08-08T01:45:30.066Z,22.4
2016-08-08T01:45:41.957Z,22.3
2016-08-08T01:45:56.075Z,22.4
2016-08-08T01:46:10.191Z,22.4
2016-08-08T01:46:25.063Z,22.5
2016-08-08T01:46:36.943Z,22.5
2016-08-08T01:46:48.074Z,22.4
2016-08-08T01:47:01.460Z,22.5
2016-08-08T01:47:12.590Z,22.4
2016-08-08T01:47:25.219Z,22.4
2016-08-08T01:47:37.831Z,22.6
2016-08-08T01:47:49.687Z,22.5
2016-08-08T01:48:00.801Z,22.6
2016-08-08T01:48:13.438Z,22.6
2016-08-08T01:48:28.302Z,22.5
2016-08-08T01:48:40.938Z,22.5
2016-08-08T01:48:53.561Z,22.5
2016-08-08T01:49:06.193Z,22.5
2016-08-08T01:49:20.309Z,22.4
2016-08-08T01:49:33.708Z,22.3
2016-08-08T01:49:44.802Z,22.3
2016-08-08T01:49:58.192Z,22.2
2016-08-08T01:50:13.807Z,22.2
2016-08-08T01:50:26.452Z,22.2
2016-08-08T01:50:39.065Z,22.2
2016-08-08T01:50:51.681Z,22.2
2016-08-08T01:51:06.544Z,22.2
2016-08-08T01:51:20.654Z,22.1
2016-08-08T01:51:33.268Z,22.1
2016-08-08T01:51:48.906Z,22.1
2016-08-08T01:52:03.010Z,22.3
2016-08-08T01:52:17.137Z,22.2
2016-08-08T01:52:30.522Z,22.2
2016-08-08T01:52:43.910Z,22.2
2016-08-08T01:52:56.730Z,22.2
2016-08-08T01:53:10.848Z,22.2
2016-08-08T01:53:24.198Z,22.1
2016-08-08T01:53:36.065Z,22.2
2016-08-08T01:53:50.962Z,22.2
2016-08-08T01:54:05.076Z,22.1
2016-08-08T01:54:19.957Z,22.2
2016-08-08T01:54:33.323Z,22.1
2016-08-08T01:54:48.183Z,22.1
2016-08-08T01:55:01.547Z,22.2
2016-08-08T01:55:13.441Z,22.1
2016-08-08T01:55:26.074Z,22.1
2016-08-08T01:55:37.958Z,22.2
2016-08-08T01:55:51.331Z,22.1
2016-08-08T01:56:06.197Z,22
2016-08-08T01:56:19.569Z,21.9
2016-08-08T01:56:33.675Z,22
2016-08-08T01:56:47.064Z,22.1
2016-08-08T01:57:11.224Z,22
2016-08-08T01:57:23.835Z,22
2016-08-08T01:57:37.946Z,22
2016-08-08T01:57:52.064Z,22
2016-08-08T01:58:06.175Z,22
2016-08-08T01:58:18.785Z,22
2016-08-08T01:58:31.402Z,22
2016-08-08T01:58:43.290Z,22
2016-08-08T01:58:57.398Z,22.1
2016-08-08T01:59:10.759Z,22.2
2016-08-08T01:59:24.154Z,22.1
2016-08-08T01:59:37.512Z,22.1
2016-08-08T01:59:51.657Z,22.2
2016-08-08T02:00:07.290Z,22.2
2016-08-08T02:00:22.906Z,22.1
2016-08-08T02:00:37.021Z,21.9
2016-08-08T02:00:51.140Z,22
2016-08-08T02:01:03.752Z,22.2
2016-08-08T02:01:17.875Z,22.1
2016-08-08T02:01:29.745Z,22.1
2016-08-08T02:01:41.635Z,22.2
2016-08-08T02:01:54.235Z,22.2
2016-08-08T02:02:09.102Z,22.2
2016-08-08T02:02:21.749Z,22
2016-08-08T02:02:34.366Z,21.8
2016-08-08T02:02:49.234Z,21.9
2016-08-08T02:03:01.106Z,21.9
2016-08-08T02:03:13.736Z,22
2016-08-08T02:03:27.107Z,22
2016-08-08T02:03:39.767Z,22.1
2016-08-08T02:03:51.640Z,22.1
2016-08-08T02:04:06.502Z,22.2
2016-08-08T02:04:19.114Z,22
2016-08-08T02:04:33.229Z,22.1
2016-08-08T02:04:45.111Z,22.1
2016-08-08T02:04:57.718Z,22
2016-08-08T02:05:10.355Z,21.9
2016-08-08T02:05:24.473Z,22
2016-08-08T02:05:35.606Z,22.1
2016-08-08T02:05:50.480Z,22.2
2016-08-08T02:06:04.599Z,22.2
2016-08-08T02:06:17.962Z,22.2
2016-08-08T02:06:32.828Z,22.1
2016-08-08T02:06:44.699Z,22.2
2016-08-08T02:06:58.845Z,22.2
2016-08-08T02:07:12.953Z,22.2
2016-08-08T02:07:24.838Z,22.2
2016-08-08T02:07:37.479Z,22
2016-08-08T02:07:52.348Z,22.2
2016-08-08T02:08:05.708Z,22.1
2016-08-08T02:08:18.332Z,22.1
2016-08-08T02:08:32.452Z,22
2016-08-08T02:08:45.835Z,22
2016-08-08T02:08:59.213Z,21.9
2016-08-08T02:09:11.844Z,22
2016-08-08T02:09:24.455Z,22
2016-08-08T02:09:38.574Z,22.1
2016-08-08T02:09:53.448Z,22.2
2016-08-08T02:10:07.551Z,22.1
2016-08-08T02:10:20.920Z,22.1
2016-08-08T02:10:33.531Z,22
2016-08-08T02:10:47.653Z,22.1
2016-08-08T02:10:59.545Z,22.1
2016-08-08T02:11:14.412Z,22
2016-08-08T02:11:27.796Z,22.1
2016-08-08T02:11:40.405Z,22.2
2016-08-08T02:12:01.628Z,22.2
2016-08-08T02:12:13.509Z,22.2
2016-08-08T02:12:26.143Z,22.2
2016-08-08T02:12:38.749Z,22.2
2016-08-08T02:12:53.617Z,22.3
2016-08-08T02:13:06.245Z,22.3
2016-08-08T02:13:21.858Z,22.3
2016-08-08T02:13:35.241Z,22.1
2016-08-08T02:13:49.355Z,22.3
2016-08-08T02:14:01.227Z,22.3
2016-08-08T02:14:13.835Z,22.2
2016-08-08T02:14:27.962Z,22.1
2016-08-08T02:14:42.079Z,22.1
2016-08-08T02:14:55.438Z,22.1
2016-08-08T02:15:08.059Z,22.1
2016-08-08T02:15:22.178Z,22.2
2016-08-08T02:15:36.292Z,22.2
2016-08-08T02:15:48.904Z,22.2
2016-08-08T02:16:00.788Z,22.2
2016-08-08T02:16:15.653Z,22.3
2016-08-08T02:16:30.516Z,22.3
2016-08-08T02:16:42.379Z,22.3
2016-08-08T02:16:56.498Z,22.3
2016-08-08T02:17:10.627Z,22.3
2016-08-08T02:17:23.258Z,22.2
2016-08-08T02:17:35.127Z,22.2
2016-08-08T02:17:49.249Z,22.1
2016-08-08T02:18:01.130Z,22.2
2016-08-08T02:18:16.766Z,22.2
2016-08-08T02:18:29.390Z,22.2
2016-08-08T02:18:42.775Z,22
2016-08-08T02:18:55.395Z,22
2016-08-08T02:19:07.242Z,22
2016-08-08T02:19:22.104Z,22.1
2016-08-08T02:19:35.476Z,22
2016-08-08T02:19:47.329Z,22
2016-08-08T02:20:01.436Z,22
2016-08-08T02:20:13.319Z,21.9
2016-08-08T02:20:24.467Z,22
2016-08-08T02:20:35.560Z,22.1
2016-08-08T02:20:48.919Z,22
2016-08-08T02:21:00.796Z,21.9
2016-08-08T02:21:14.190Z,22
2016-08-08T02:21:24.573Z,21.9
2016-08-08T02:21:38.704Z,22
2016-08-08T02:21:52.840Z,21.9
2016-08-08T02:22:06.951Z,22.1
2016-08-08T02:22:19.576Z,21.9
2016-08-08T02:22:30.688Z,21.9
2016-08-08T02:22:44.808Z,21.8
2016-08-08T02:22:58.920Z,21.7
2016-08-08T02:23:13.800Z,21.8
2016-08-08T02:23:27.922Z,21.8
2016-08-08T02:23:42.046Z,21.8
2016-08-08T02:23:56.166Z,21.8
2016-08-08T02:24:09.537Z,21.8
2016-08-08T02:24:20.638Z,21.8
2016-08-08T02:24:33.269Z,21.9
2016-08-08T02:24:45.161Z,21.9
2016-08-08T02:24:57.776Z,21.8
2016-08-08T02:25:10.405Z,21.8
2016-08-08T02:25:25.298Z,21.7
2016-08-08T02:25:37.930Z,21.7
2016-08-08T02:25:51.284Z,21.7
2016-08-08T02:26:03.912Z,21.7
2016-08-08T02:26:17.282Z,21.8
2016-08-08T02:26:29.898Z,21.5
2016-08-08T02:26:43.283Z,21.4
2016-08-08T02:27:05.425Z,21.5
2016-08-08T02:27:19.537Z,21.6
2016-08-08T02:27:35.156Z,21.6
2016-08-08T02:27:45.512Z,21.8
2016-08-08T02:28:00.391Z,21.8
2016-08-08T02:28:15.262Z,21.8
2016-08-08T02:28:28.647Z,21.8
2016-08-08T02:28:42.008Z,21.7
2016-08-08T02:28:54.631Z,21.7
2016-08-08T02:29:07.251Z,21.7
2016-08-08T02:29:21.372Z,21.7
2016-08-08T02:29:33.972Z,21.7
2016-08-08T02:29:47.352Z,21.8
2016-08-08T02:30:00.720Z,21.7
2016-08-08T02:30:12.588Z,21.8
2016-08-08T02:30:25.941Z,21.9
2016-08-08T02:30:38.575Z,21.8
2016-08-08T02:30:51.201Z,21.8
2016-08-08T02:31:06.072Z,21.8
2016-08-08T02:31:18.686Z,21.8
2016-08-08T02:31:30.580Z,21.7
2016-08-08T02:31:45.448Z,21.8
2016-08-08T02:31:58.824Z,21.7
2016-08-08T02:32:10.678Z,21.8
2016-08-08T02:32:22.550Z,21.8
2016-08-08T02:32:36.673Z,21.8
2016-08-08T02:32:50.788Z,21.7
2016-08-08T02:33:05.655Z,21.8
2016-08-08T02:33:19.016Z,21.6
2016-08-08T02:33:32.375Z,21.6
2016-08-08T02:33:44.263Z,21.6
2016-08-08T02:33:56.892Z,21.7
2016-08-08T02:34:09.516Z,21.7
2016-08-08T02:34:24.376Z,21.7
2016-08-08T02:34:36.985Z,21.7
2016-08-08T02:34:50.349Z,21.7
2016-08-08T02:35:02.983Z,21.7
2016-08-08T02:35:14.096Z,21.8
2016-08-08T02:35:28.232Z,21.8
2016-08-08T02:35:40.857Z,21.8
2016-08-08T02:35:53.473Z,21.8
2016-08-08T02:36:07.598Z,21.8
2016-08-08T02:36:19.495Z,21.8
2016-08-08T02:36:34.368Z,21.8
2016-08-08T02:36:48.488Z,21.9
2016-08-08T02:37:01.860Z,21.7
2016-08-08T02:37:13.711Z,21.8
2016-08-08T02:37:28.594Z,21.8
2016-08-08T02:37:43.455Z,21.9
2016-08-08T02:37:58.324Z,21.9
2016-08-08T02:38:11.689Z,21.6
2016-08-08T02:38:26.556Z,21.6
2016-08-08T02:38:41.419Z,21.8
2016-08-08T02:38:55.550Z,21.8
2016-08-08T02:39:06.677Z,21.7
2016-08-08T02:39:19.310Z,21.7
2016-08-08T02:39:32.671Z,21.6
2016-08-08T02:39:45.301Z,21.5
2016-08-08T02:39:59.409Z,21.4
2016-08-08T02:40:11.266Z,21.4
2016-08-08T02:40:23.895Z,21.4
2016-08-08T02:40:36.530Z,21.4
2016-08-08T02:40:49.886Z,21.5
2016-08-08T02:41:03.256Z,21.6
2016-08-08T02:41:16.651Z,21.6
2016-08-08T02:41:28.518Z,21.7
2016-08-08T02:41:40.393Z,21.5
2016-08-08T02:41:55.255Z,21.4
2016-08-08T02:42:18.304Z,21.4
2016-08-08T02:42:32.413Z,21.4
2016-08-08T02:42:45.769Z,21.4
2016-08-08T02:42:59.886Z,21.4
2016-08-08T02:43:13.989Z,21.3
2016-08-08T02:43:28.104Z,21.2
2016-08-08T02:43:43.006Z,21.3
2016-08-08T02:43:56.357Z,21.1
2016-08-08T02:44:07.492Z,21.3
2016-08-08T02:44:21.611Z,21.3
2016-08-08T02:44:36.488Z,21.3
2016-08-08T02:44:49.113Z,21.1
2016-08-08T02:45:01.768Z,21.2
2016-08-08T02:45:15.148Z,21.2
2016-08-08T02:45:28.508Z,21.2
2016-08-08T02:45:43.386Z,21.1
2016-08-08T02:45:55.281Z,21.2
2016-08-08T02:46:06.400Z,21.3
2016-08-08T02:46:19.756Z,21.3
2016-08-08T02:46:33.122Z,21.3
2016-08-08T02:46:43.497Z,21.3
2016-08-08T02:46:53.900Z,21.3
2016-08-08T02:47:05.797Z,21.3
2016-08-08T02:47:19.944Z,21.4
2016-08-08T02:47:31.831Z,21.3
2016-08-08T02:47:43.681Z,21.4
2016-08-08T02:47:57.042Z,21.4
2016-08-08T02:48:10.404Z,21.5
2016-08-08T02:48:24.516Z,21.5
2016-08-08T02:48:39.390Z,21.5
2016-08-08T02:48:52.779Z,21.5
2016-08-08T02:49:07.654Z,21.4
2016-08-08T02:49:21.758Z,21.2
2016-08-08T02:49:35.875Z,21.2
2016-08-08T02:49:49.988Z,21.3
2016-08-08T02:50:02.600Z,21.2
2016-08-08T02:50:12.956Z,21.1
2016-08-08T02:50:27.065Z,21.1
2016-08-08T02:50:40.421Z,21
2016-08-08T02:50:53.802Z,21.3
2016-08-08T02:51:06.414Z,21.2
2016-08-08T02:51:17.552Z,21.2
2016-08-08T02:51:30.160Z,21.3
2016-08-08T02:51:45.019Z,21.2
2016-08-08T02:51:59.888Z,21.2
2016-08-08T02:52:14.007Z,21.2
2016-08-08T02:52:26.656Z,21.3
2016-08-08T02:52:41.521Z,21.2
2016-08-08T02:52:54.128Z,21.2
2016-08-08T02:53:06.761Z,21.2
2016-08-08T02:53:18.648Z,21
2016-08-08T02:53:31.255Z,21.1
2016-08-08T02:53:45.371Z,21.1
2016-08-08T02:53:59.503Z,21.1
2016-08-08T02:54:13.616Z,21.3
2016-08-08T02:54:27.756Z,21.2
2016-08-08T02:54:38.140Z,21.3
2016-08-08T02:54:53.015Z,21.3
2016-08-08T02:55:06.391Z,21.4
2016-08-08T02:55:19.766Z,21.3
2016-08-08T02:55:31.635Z,21.2
2016-08-08T02:55:46.509Z,21.3
2016-08-08T02:55:58.392Z,21.3
2016-08-08T02:56:13.263Z,21.2
2016-08-08T02:56:27.412Z,21.3
2016-08-08T02:56:42.280Z,21.4
2016-08-08T02:56:54.904Z,21.4
2016-08-08T02:57:06.773Z,21.4
2016-08-08T02:57:29.452Z,21.5
2016-08-08T02:57:43.558Z,21.3
2016-08-08T02:57:56.185Z,21.1
2016-08-08T02:58:09.552Z,21.2
2016-08-08T02:58:22.918Z,21.2
2016-08-08T02:58:36.279Z,21.4
2016-08-08T02:58:50.389Z,21.2
2016-08-08T02:59:06.008Z,21.2